Terminal Aerodrome Forecast
Issued by NWS Quad Cities IA IL

Home | Current Version | Previous Version | Text Only | Print | Product List | Glossary On
Versions: 1 2 3 4 5 6 7 8 9 10 11 12 13 14 15 16 17 18 19 20 21 22 23 24 25 26 27 28 29 30 31
000
FTUS43 KDVN 201928 AAA
TAFDBQ
TAF AMD
KDBQ 201928Z 2019/2118 11010KT 3SM BR OVC008
      TEMPO 2019/2021 2SM BR OVC005
     FM202100 12010KT 6SM BR VCSH OVC008
     FM210200 15010KT P6SM BKN012
     FM210900 24012KT P6SM OVC007
     FM211500 25015KT P6SM OVC015=

USA.gov is the U.S. government's official web portal to all federal, state and local government web resources and services.